Time;durP1;ratioP1;P1;durP2;ratioP2;P2;SDS_P1;SDS_P2;PMS_P1;PMS_P2;Temp;Humidity;BMP_temperature;BMP_pressure;BME280_temperature;BME280_humidity;BME280_pressure;Samples;Min_cycle;Max_cycle;Signal;HPM_P1;HPM_P2
2021/12/10 00:01:50;;;;;;;16.17;3.58;;;;;;;;;;4945928;29;20062;-67
2021/12/10 00:04:29;;;;;;;22.30;4.43;;;;;;;;;;4935154;29;20062;-68
2021/12/10 00:07:12;;;;;;;22.95;4.97;;;;;;;;;;4951288;29;20066;-68
2021/12/10 00:09:51;;;;;;;23.63;4.82;;;;;;;;;;4951227;29;20070;-68
2021/12/10 00:12:35;;;;;;;15.10;4.40;;;;;;;;;;4951636;29;20067;-68
2021/12/10 00:15:07;;;;;;;19.45;5.00;;;;;;;;;;4951278;29;20059;-69
2021/12/10 00:17:38;;;;;;;26.42;5.72;;;;;;;;;;4959730;28;20063;-68
2021/12/10 00:20:11;;;;;;;16.90;5.18;;;;;;;;;;4950731;29;20416;-69
2021/12/10 00:22:54;;;;;;;20.42;4.03;;;;;;;;;;4950792;29;20055;-67
2021/12/10 00:25:36;;;;;;;19.08;5.18;;;;;;;;;;4935443;29;20416;-68
2021/12/10 00:28:39;;;;;;;16.10;4.47;;;;;;;;;;4897252;29;20075;-69
2021/12/10 00:31:42;;;;;;;15.45;4.10;;;;;;;;;;4856973;29;20096;-67
2021/12/10 00:34:15;;;;;;;18.40;4.35;;;;;;;;;;4856899;29;20074;-67
2021/12/10 00:36:47;;;;;;;22.15;4.45;;;;;;;;;;4878102;29;20057;-68
2021/12/10 00:39:25;;;;;;;24.38;4.10;;;;;;;;;;4878913;29;20061;-68
2021/12/10 00:41:58;;;;;;;18.05;3.97;;;;;;;;;;4879151;29;20057;-68
2021/12/10 00:44:29;;;;;;;21.65;4.40;;;;;;;;;;4879343;29;20086;-69
2021/12/10 00:47:00;;;;;;;17.02;3.47;;;;;;;;;;4879158;29;20065;-68
2021/12/10 00:49:32;;;;;;;18.02;3.67;;;;;;;;;;4879081;29;20053;-69
2021/12/10 00:52:04;;;;;;;17.10;3.53;;;;;;;;;;4878956;29;20063;-68
2021/12/10 00:54:35;;;;;;;18.83;3.95;;;;;;;;;;4887512;29;20067;-69
2021/12/10 00:57:08;;;;;;;16.15;3.60;;;;;;;;;;4863395;29;20052;-69
2021/12/10 00:59:41;;;;;;;20.33;3.90;;;;;;;;;;4863729;29;20462;-76
2021/12/10 01:02:14;;;;;;;14.32;3.53;;;;;;;;;;4878468;29;20069;-70
2021/12/10 01:04:49;;;;;;;16.42;3.92;;;;;;;;;;4878704;29;20049;-68
2021/12/10 01:07:23;;;;;;;21.67;4.20;;;;;;;;;;4895055;29;20059;-68
2021/12/10 01:09:58;;;;;;;17.33;4.18;;;;;;;;;;4954227;29;20078;-68
2021/12/10 01:12:36;;;;;;;17.13;3.40;;;;;;;;;;4954160;29;20446;-69
2021/12/10 01:23:49;;;;;;;21.10;3.40;;;;;;;;;;4954282;29;20059;-69
2021/12/10 01:29:11;;;;;;;16.35;3.80;;;;;;;;;;4953925;29;20423;-70
2021/12/10 01:31:42;;;;;;;13.32;3.03;;;;;;;;;;4922185;29;20055;-68
2021/12/10 01:34:13;;;;;;;12.38;2.70;;;;;;;;;;4959393;28;20106;-70
2021/12/10 01:36:44;;;;;;;13.52;3.08;;;;;;;;;;4973219;28;20054;-68
2021/12/10 01:39:19;;;;;;;20.92;3.30;;;;;;;;;;4934388;29;20163;-69
2021/12/10 01:42:00;;;;;;;18.73;3.67;;;;;;;;;;4915466;29;20057;-69
2021/12/10 01:44:36;;;;;;;16.58;3.70;;;;;;;;;;4915684;29;20168;-68
2021/12/10 01:47:09;;;;;;;9.90;3.28;;;;;;;;;;4895002;29;20056;-68
2021/12/10 01:49:40;;;;;;;18.23;3.20;;;;;;;;;;4896844;29;20059;-68
2021/12/10 01:52:14;;;;;;;20.88;3.03;;;;;;;;;;4901414;29;20067;-69
2021/12/10 01:54:51;;;;;;;13.10;3.03;;;;;;;;;;4892896;29;20056;-68
2021/12/10 01:57:27;;;;;;;22.48;4.28;;;;;;;;;;4865623;29;20460;-67
2021/12/10 01:59:57;;;;;;;15.25;3.40;;;;;;;;;;4896680;29;20053;-69
2021/12/10 02:02:32;;;;;;;15.23;3.90;;;;;;;;;;4881622;29;20063;-69
2021/12/10 02:05:05;;;;;;;21.02;5.00;;;;;;;;;;4896851;29;20502;-69
2021/12/10 02:07:36;;;;;;;16.48;4.20;;;;;;;;;;4877406;29;20064;-68
2021/12/10 02:10:08;;;;;;;27.02;5.38;;;;;;;;;;4877856;29;20064;-68
2021/12/10 02:12:39;;;;;;;23.70;4.70;;;;;;;;;;4877617;29;20429;-69
2021/12/10 02:15:12;;;;;;;19.77;4.88;;;;;;;;;;4831722;29;20057;-69
2021/12/10 02:17:47;;;;;;;26.85;4.60;;;;;;;;;;4893298;29;20085;-69
2021/12/10 02:20:20;;;;;;;25.08;4.32;;;;;;;;;;4933823;29;20043;-71
2021/12/10 02:22:51;;;;;;;18.45;3.63;;;;;;;;;;4953125;29;20078;-70
2021/12/10 02:25:25;;;;;;;18.58;3.90;;;;;;;;;;4914604;29;20072;-69
2021/12/10 02:27:57;;;;;;;16.67;3.55;;;;;;;;;;4914969;29;20071;-69
2021/12/10 02:30:29;;;;;;;22.48;3.58;;;;;;;;;;4933758;29;20058;-70
2021/12/10 02:33:00;;;;;;;19.55;3.33;;;;;;;;;;4943608;29;20055;-69
2021/12/10 02:35:34;;;;;;;19.27;4.05;;;;;;;;;;4953104;28;20063;-69
2021/12/10 02:38:05;;;;;;;16.98;3.72;;;;;;;;;;4952891;28;20201;-68
2021/12/10 02:40:37;;;;;;;23.52;3.67;;;;;;;;;;4953061;28;20059;-69
2021/12/10 02:43:11;;;;;;;19.05;4.65;;;;;;;;;;4921394;29;20059;-69
2021/12/10 02:45:44;;;;;;;20.15;4.30;;;;;;;;;;4961478;28;20054;-70
2021/12/10 02:48:15;;;;;;;20.77;4.53;;;;;;;;;;4950221;28;20055;-69
2021/12/10 02:50:47;;;;;;;20.95;4.38;;;;;;;;;;4952075;28;20062;-71
2021/12/10 02:53:24;;;;;;;19.17;3.97;;;;;;;;;;4952073;29;20047;-69
2021/12/10 02:55:58;;;;;;;29.02;4.07;;;;;;;;;;4919569;29;20489;-68
2021/12/10 02:58:29;;;;;;;19.50;3.67;;;;;;;;;;4919618;29;20048;-69
2021/12/10 03:01:10;;;;;;;14.63;4.25;;;;;;;;;;4896766;29;20175;-69
2021/12/10 03:03:42;;;;;;;13.07;3.60;;;;;;;;;;4907447;29;20051;-69
2021/12/10 03:06:15;;;;;;;12.27;3.40;;;;;;;;;;4943707;29;20516;-69
2021/12/10 03:08:47;;;;;;;;;;;;;;;;;;4941936;29;20075;-71
2021/12/10 03:11:21;;;;;;;16.70;3.78;;;;;;;;;;4905014;29;20032;-70
2021/12/10 03:13:53;;;;;;;20.35;4.53;;;;;;;;;;4907823;29;20158;-69
2021/12/10 03:16:24;;;;;;;14.23;4.78;;;;;;;;;;4894460;29;20386;-69
2021/12/10 03:18:55;;;;;;;21.15;4.13;;;;;;;;;;4894931;29;20052;-69
2021/12/10 03:21:26;;;;;;;19.98;4.60;;;;;;;;;;4894743;29;20079;-72
2021/12/10 03:23:58;;;;;;;16.25;4.05;;;;;;;;;;4857201;29;20064;-70
2021/12/10 03:26:28;;;;;;;17.90;4.30;;;;;;;;;;4856739;29;20205;-68
2021/12/10 03:28:59;;;;;;;16.23;5.43;;;;;;;;;;4857618;29;20417;-69
2021/12/10 03:31:30;;;;;;;20.83;4.65;;;;;;;;;;4871461;29;20999;-70
2021/12/10 03:34:01;;;;;;;16.77;4.38;;;;;;;;;;4856502;29;20446;-70
2021/12/10 03:36:34;;;;;;;14.70;4.18;;;;;;;;;;4857341;29;20205;-69
2021/12/10 03:39:06;;;;;;;20.63;4.22;;;;;;;;;;4817064;29;20061;-70
2021/12/10 03:41:36;;;;;;;22.88;4.80;;;;;;;;;;4863904;29;20048;-69
2021/12/10 03:44:08;;;;;;;16.38;4.00;;;;;;;;;;4858460;29;20057;-70
2021/12/10 03:46:49;;;;;;;14.65;4.68;;;;;;;;;;4857234;29;20472;-69
2021/12/10 03:49:20;;;;;;;16.08;4.45;;;;;;;;;;4888560;29;20065;-69
2021/12/10 03:51:51;;;;;;;;;;;;;;;;;;4892607;29;20068;-71
2021/12/10 03:54:23;;;;;;;17.35;4.35;;;;;;;;;;4885891;29;19928;-72
2021/12/10 03:56:54;;;;;;;18.67;4.20;;;;;;;;;;4875618;29;20069;-69
2021/12/10 03:59:25;;;;;;;23.17;4.45;;;;;;;;;;4894611;29;20068;-70
2021/12/10 04:01:57;;;;;;;23.85;4.75;;;;;;;;;;4879002;29;20053;-69
2021/12/10 04:04:33;;;;;;;;;;;;;;;;;;4885933;29;20425;-68
2021/12/10 04:07:09;;;;;;;13.73;3.33;;;;;;;;;;4893724;29;19932;-68
2021/12/10 04:09:57;;;;;;;14.40;4.05;;;;;;;;;;4860213;29;20103;-70
2021/12/10 04:12:39;;;;;;;16.67;3.75;;;;;;;;;;4854004;29;20054;-69
2021/12/10 04:15:27;;;;;;;14.45;3.85;;;;;;;;;;4819947;29;20054;-72
2021/12/10 04:17:59;;;;;;;13.18;3.72;;;;;;;;;;4801741;29;20051;-69
2021/12/10 04:20:30;;;;;;;15.85;3.45;;;;;;;;;;4784149;29;20066;-69
2021/12/10 04:23:08;;;;;;;17.17;3.63;;;;;;;;;;4816992;29;20432;-71
2021/12/10 04:25:55;;;;;;;17.02;3.83;;;;;;;;;;4807140;29;20050;-70
2021/12/10 04:28:27;;;;;;;23.73;4.38;;;;;;;;;;4815165;29;20533;-71
2021/12/10 04:30:58;;;;;;;12.73;3.47;;;;;;;;;;4784003;29;20072;-70
2021/12/10 04:33:31;;;;;;;16.52;3.88;;;;;;;;;;4837841;29;20054;-69
2021/12/10 04:36:03;;;;;;;13.73;3.70;;;;;;;;;;4838415;29;20065;-70
2021/12/10 04:39:00;;;;;;;20.27;3.55;;;;;;;;;;4816700;29;20070;-72
2021/12/10 04:41:34;;;;;;;19.10;3.78;;;;;;;;;;4811020;29;20059;-70
2021/12/10 04:44:07;;;;;;;12.95;3.90;;;;;;;;;;4774900;29;20067;-70
2021/12/10 04:46:41;;;;;;;10.55;3.83;;;;;;;;;;4798336;29;20080;-69
2021/12/10 04:49:14;;;;;;;11.88;3.05;;;;;;;;;;4819565;29;20061;-69
2021/12/10 04:51:54;;;;;;;13.35;3.17;;;;;;;;;;4859278;29;20058;-72
2021/12/10 04:54:26;;;;;;;11.32;3.20;;;;;;;;;;4893575;29;20079;-70
2021/12/10 04:56:59;;;;;;;15.95;2.92;;;;;;;;;;4878968;29;20158;-70
2021/12/10 04:59:32;;;;;;;13.23;3.28;;;;;;;;;;4878372;29;20599;-70
2021/12/10 05:02:06;;;;;;;13.15;3.47;;;;;;;;;;4908852;29;20075;-72
2021/12/10 05:04:38;;;;;;;13.73;3.38;;;;;;;;;;4859655;29;20057;-71
2021/12/10 05:07:11;;;;;;;13.27;3.35;;;;;;;;;;4875105;29;20076;-70
2021/12/10 05:09:41;;;;;;;12.93;3.03;;;;;;;;;;4893338;29;20049;-70
2021/12/10 05:12:12;;;;;;;19.17;3.45;;;;;;;;;;4874584;29;20045;-71
2021/12/10 05:14:43;;;;;;;16.15;2.90;;;;;;;;;;4856342;29;20057;-70
2021/12/10 05:17:13;;;;;;;15.45;2.95;;;;;;;;;;4872269;29;20064;-71
2021/12/10 05:19:46;;;;;;;18.08;3.47;;;;;;;;;;4856316;29;20065;-71
2021/12/10 05:22:16;;;;;;;9.45;4.63;;;;;;;;;;4876822;29;20428;-69
2021/12/10 05:24:47;;;;;;;8.90;2.95;;;;;;;;;;4859348;29;20062;-71
2021/12/10 05:27:18;;;;;;;12.43;2.90;;;;;;;;;;4865795;29;20082;-69
2021/12/10 05:29:48;;;;;;;10.30;2.67;;;;;;;;;;4837527;29;20054;-71
2021/12/10 05:32:18;;;;;;;14.88;2.92;;;;;;;;;;4807749;29;20062;-71
2021/12/10 05:34:48;;;;;;;10.98;2.83;;;;;;;;;;4859295;29;20081;-70
2021/12/10 05:37:19;;;;;;;10.10;2.90;;;;;;;;;;4859555;29;20061;-69
2021/12/10 05:39:49;;;;;;;11.98;3.50;;;;;;;;;;4859309;29;20058;-71
2021/12/10 05:42:19;;;;;;;18.45;3.33;;;;;;;;;;4844330;29;20480;-69
2021/12/10 05:44:51;;;;;;;20.15;4.55;;;;;;;;;;4850016;29;20450;-69
2021/12/10 05:47:22;;;;;;;18.98;3.97;;;;;;;;;;4849897;29;20057;-70
2021/12/10 05:49:52;;;;;;;20.67;3.65;;;;;;;;;;4835265;29;20061;-70
2021/12/10 05:52:23;;;;;;;15.27;3.65;;;;;;;;;;4850010;29;20100;-71
2021/12/10 05:54:54;;;;;;;15.15;3.55;;;;;;;;;;4868392;29;20518;-72
2021/12/10 05:57:25;;;;;;;12.77;3.08;;;;;;;;;;4887195;29;20057;-71
2021/12/10 05:59:55;;;;;;;9.70;3.55;;;;;;;;;;4915156;29;20170;-69
2021/12/10 06:02:26;;;;;;;22.15;3.20;;;;;;;;;;4924820;29;20060;-70
2021/12/10 06:04:58;;;;;;;15.45;3.15;;;;;;;;;;4933628;29;20134;-72
2021/12/10 06:07:29;;;;;;;9.55;3.58;;;;;;;;;;4934333;29;20063;-70
2021/12/10 06:10:00;;;;;;;18.55;3.88;;;;;;;;;;4933902;29;20072;-71
2021/12/10 06:12:30;;;;;;;15.15;3.15;;;;;;;;;;4944517;29;20492;-69
2021/12/10 06:15:03;;;;;;;14.63;3.20;;;;;;;;;;4952829;29;20051;-69
2021/12/10 06:17:33;;;;;;;;;;;;;;;;;;4953841;29;20071;-71
2021/12/10 06:20:08;;;;;;;14.75;4.10;;;;;;;;;;4953591;29;19926;-71
2021/12/10 06:22:38;;;;;;;11.90;3.63;;;;;;;;;;4905899;29;20063;-69
2021/12/10 06:25:11;;;;;;;11.57;2.92;;;;;;;;;;4944076;28;20047;-70
2021/12/10 06:27:44;;;;;;;9.48;2.65;;;;;;;;;;4953121;28;20063;-72
2021/12/10 06:30:19;;;;;;;13.85;3.28;;;;;;;;;;4952949;28;20055;-72
2021/12/10 06:32:52;;;;;;;15.70;3.10;;;;;;;;;;4952335;28;20075;-71
2021/12/10 06:35:25;;;;;;;12.13;3.40;;;;;;;;;;4969487;28;20065;-69
2021/12/10 06:38:00;;;;;;;12.95;3.40;;;;;;;;;;4980794;28;20055;-70
2021/12/10 06:40:33;;;;;;;11.65;3.35;;;;;;;;;;4991127;28;20046;-70
2021/12/10 06:43:04;;;;;;;9.70;3.65;;;;;;;;;;4991232;28;20065;-71
2021/12/10 06:45:36;;;;;;;16.13;3.50;;;;;;;;;;4991078;28;20054;-70
2021/12/10 06:48:09;;;;;;;7.35;2.85;;;;;;;;;;4975471;28;20058;-69
2021/12/10 06:50:47;;;;;;;17.35;3.33;;;;;;;;;;4991096;28;20054;-70
2021/12/10 06:53:21;;;;;;;12.65;3.50;;;;;;;;;;4945414;28;20427;-70
2021/12/10 06:55:53;;;;;;;15.32;3.42;;;;;;;;;;4971225;28;20054;-69
2021/12/10 06:58:24;;;;;;;11.82;3.60;;;;;;;;;;4952074;29;20462;-69
2021/12/10 07:00:59;;;;;;;10.25;3.00;;;;;;;;;;4920898;29;20511;-70
2021/12/10 07:03:30;;;;;;;10.75;3.22;;;;;;;;;;4913740;29;20052;-71
2021/12/10 07:06:03;;;;;;;14.48;3.55;;;;;;;;;;4895063;29;20064;-72
2021/12/10 07:08:34;;;;;;;;;;;;;;;;;;4895583;29;20063;-70
2021/12/10 07:11:07;;;;;;;16.65;3.22;;;;;;;;;;4895181;29;19923;-70
2021/12/10 07:13:41;;;;;;;9.27;3.58;;;;;;;;;;4895039;29;20417;-72
2021/12/10 07:16:13;;;;;;;16.50;4.05;;;;;;;;;;4857750;29;20450;-69
2021/12/10 07:18:44;;;;;;;12.50;3.42;;;;;;;;;;4825811;29;20054;-72
2021/12/10 07:21:15;;;;;;;10.25;3.40;;;;;;;;;;4857504;29;20053;-70
2021/12/10 07:23:46;;;;;;;11.15;3.50;;;;;;;;;;4857424;29;20066;-70
2021/12/10 07:26:18;;;;;;;12.82;3.95;;;;;;;;;;4857825;29;20066;-71
2021/12/10 07:28:48;;;;;;;16.80;3.75;;;;;;;;;;4875704;29;20060;-70
2021/12/10 07:31:19;;;;;;;11.38;3.30;;;;;;;;;;4876243;29;20065;-69
2021/12/10 07:33:49;;;;;;;17.35;3.35;;;;;;;;;;4845004;29;20069;-70
2021/12/10 07:36:20;;;;;;;13.52;3.00;;;;;;;;;;4894549;29;20063;-69
2021/12/10 07:38:56;;;;;;;10.02;3.17;;;;;;;;;;4894708;29;20068;-73
2021/12/10 07:41:26;;;;;;;11.48;3.42;;;;;;;;;;4917653;29;20221;-70
2021/12/10 07:43:57;;;;;;;12.15;3.85;;;;;;;;;;4956610;28;20165;-71
2021/12/10 07:46:28;;;;;;;18.05;3.53;;;;;;;;;;4939249;28;20055;-70
2021/12/10 07:48:59;;;;;;;10.68;3.40;;;;;;;;;;4971328;28;20070;-69
2021/12/10 07:51:31;;;;;;;11.50;3.10;;;;;;;;;;4951774;29;20054;-70
2021/12/10 07:54:02;;;;;;;9.93;3.45;;;;;;;;;;4924023;29;20058;-71
2021/12/10 07:56:33;;;;;;;12.65;2.92;;;;;;;;;;4906696;29;20052;-71
2021/12/10 07:59:05;;;;;;;10.13;3.05;;;;;;;;;;4902306;29;20059;-71
2021/12/10 08:01:35;;;;;;;6.68;3.00;;;;;;;;;;4909879;29;20048;-71
2021/12/10 08:04:06;;;;;;;11.65;3.20;;;;;;;;;;4894819;29;20064;-71
2021/12/10 08:06:37;;;;;;;11.65;2.97;;;;;;;;;;4935328;29;20051;-70
2021/12/10 08:09:10;;;;;;;10.38;3.35;;;;;;;;;;4951308;29;20090;-73
2021/12/10 08:11:40;;;;;;;15.88;3.53;;;;;;;;;;4951483;29;20062;-69
2021/12/10 08:14:10;;;;;;;15.20;3.33;;;;;;;;;;4962386;28;20457;-73
2021/12/10 08:16:41;;;;;;;12.85;3.50;;;;;;;;;;4970853;28;20070;-69
2021/12/10 08:19:13;;;;;;;12.85;3.38;;;;;;;;;;4970841;28;20058;-71
2021/12/10 08:21:44;;;;;;;12.77;3.05;;;;;;;;;;4938720;28;20047;-71
2021/12/10 08:24:14;;;;;;;11.63;3.30;;;;;;;;;;4970573;28;20066;-70
2021/12/10 08:26:45;;;;;;;19.45;4.60;;;;;;;;;;4970814;28;20055;-71
2021/12/10 08:29:19;;;;;;;6.55;3.00;;;;;;;;;;4970355;28;20051;-70
2021/12/10 08:31:50;;;;;;;10.35;3.35;;;;;;;;;;4970573;28;20066;-77
2021/12/10 08:34:20;;;;;;;9.25;3.20;;;;;;;;;;4998131;28;20482;-69
2021/12/10 08:36:51;;;;;;;9.70;3.67;;;;;;;;;;5009486;28;20054;-70
2021/12/10 08:39:21;;;;;;;13.05;3.15;;;;;;;;;;4993760;28;20065;-70
2021/12/10 08:41:55;;;;;;;11.23;2.90;;;;;;;;;;5009381;28;20053;-69
2021/12/10 08:44:26;;;;;;;9.52;3.08;;;;;;;;;;4981070;28;20053;-71
2021/12/10 08:46:58;;;;;;;12.80;3.33;;;;;;;;;;4941553;28;20053;-71
2021/12/10 08:49:29;;;;;;;7.68;3.60;;;;;;;;;;4959004;28;20091;-70
2021/12/10 08:51:59;;;;;;;12.02;3.25;;;;;;;;;;4951033;29;20059;-70
2021/12/10 08:54:31;;;;;;;15.45;3.53;;;;;;;;;;4904087;29;20047;-70
2021/12/10 08:57:03;;;;;;;12.02;3.28;;;;;;;;;;4952974;28;20058;-71
2021/12/10 08:59:36;;;;;;;15.85;3.55;;;;;;;;;;4935250;29;20052;-70
2021/12/10 09:02:10;;;;;;;13.07;3.63;;;;;;;;;;4935456;29;20056;-70
2021/12/10 09:04:42;;;;;;;7.55;3.38;;;;;;;;;;4916205;29;20466;-71
2021/12/10 09:07:16;;;;;;;7.47;2.55;;;;;;;;;;4916429;29;20056;-71
2021/12/10 09:09:48;;;;;;;10.65;3.17;;;;;;;;;;4934724;29;20059;-70
2021/12/10 09:12:25;;;;;;;7.45;2.45;;;;;;;;;;4907901;29;20067;-70
2021/12/10 09:15:00;;;;;;;13.63;2.72;;;;;;;;;;4947740;28;20047;-70
2021/12/10 09:17:32;;;;;;;10.55;2.85;;;;;;;;;;4954275;28;20079;-69
2021/12/10 09:20:10;;;;;;;14.43;2.85;;;;;;;;;;4920972;29;20056;-70
2021/12/10 09:22:41;;;;;;;10.52;3.00;;;;;;;;;;4914493;29;20051;-70
2021/12/10 09:25:13;;;;;;;11.85;2.80;;;;;;;;;;4934861;29;20071;-71
2021/12/10 09:27:44;;;;;;;13.63;3.03;;;;;;;;;;4949042;29;20055;-71
2021/12/10 09:30:17;;;;;;;12.57;2.95;;;;;;;;;;4924353;29;20062;-70
2021/12/10 09:32:48;;;;;;;11.48;3.03;;;;;;;;;;4903147;29;20075;-71
2021/12/10 09:35:21;;;;;;;13.82;2.95;;;;;;;;;;4934642;29;20055;-70
2021/12/10 09:37:53;;;;;;;14.60;3.30;;;;;;;;;;4950050;29;20067;-71
2021/12/10 09:40:27;;;;;;;10.45;2.53;;;;;;;;;;4948765;29;20063;-70
2021/12/10 09:42:59;;;;;;;18.15;3.20;;;;;;;;;;4963426;28;20077;-71
2021/12/10 09:45:33;;;;;;;10.50;2.95;;;;;;;;;;4972794;28;20068;-68
2021/12/10 09:48:06;;;;;;;22.15;3.58;;;;;;;;;;4937404;29;20051;-71
2021/12/10 09:50:51;;;;;;;9.45;3.65;;;;;;;;;;4953569;29;20431;-70
2021/12/10 09:53:22;;;;;;;14.73;3.78;;;;;;;;;;4953592;29;20055;-69
2021/12/10 09:55:55;;;;;;;18.15;3.45;;;;;;;;;;4922858;29;20066;-69
2021/12/10 09:58:27;;;;;;;14.30;3.83;;;;;;;;;;5000516;28;20049;-69
2021/12/10 10:01:19;;;;;;;15.73;4.10;;;;;;;;;;4995745;28;20061;-70
2021/12/10 10:03:58;;;;;;;22.42;4.40;;;;;;;;;;5011697;28;20049;-69
2021/12/10 10:06:34;;;;;;;20.00;3.90;;;;;;;;;;5012063;28;20057;-69
2021/12/10 10:09:12;;;;;;;11.88;3.92;;;;;;;;;;5010685;28;20433;-69
2021/12/10 10:11:46;;;;;;;23.77;3.95;;;;;;;;;;5011997;28;20050;-69
2021/12/10 10:14:16;;;;;;;13.43;3.45;;;;;;;;;;5011639;28;20050;-69
2021/12/10 10:16:46;;;;;;;16.70;3.55;;;;;;;;;;4991681;28;20061;-68
2021/12/10 10:19:18;;;;;;;13.95;3.53;;;;;;;;;;4991993;28;20057;-69
2021/12/10 10:21:54;;;;;;;18.92;3.22;;;;;;;;;;5011696;28;20066;-69
2021/12/10 10:24:27;;;;;;;16.42;3.60;;;;;;;;;;4972185;28;20051;-69
2021/12/10 10:27:06;;;;;;;22.80;3.28;;;;;;;;;;4975512;28;20062;-72
2021/12/10 10:29:41;;;;;;;14.30;3.40;;;;;;;;;;4952841;29;20526;-72
2021/12/10 10:32:17;;;;;;;14.90;3.40;;;;;;;;;;4933580;29;20051;-69
2021/12/10 10:34:58;;;;;;;20.05;3.38;;;;;;;;;;4933715;29;20420;-68
2021/12/10 10:37:30;;;;;;;20.20;3.30;;;;;;;;;;4933606;29;20058;-68
2021/12/10 10:40:04;;;;;;;16.67;3.40;;;;;;;;;;4914444;29;20048;-68
2021/12/10 10:42:35;;;;;;;18.63;3.22;;;;;;;;;;4914168;29;20119;-67
2021/12/10 10:45:17;;;;;;;24.92;3.85;;;;;;;;;;4891950;29;20053;-67
2021/12/10 10:47:49;;;;;;;16.10;3.15;;;;;;;;;;4830642;29;20068;-67
2021/12/10 10:50:46;;;;;;;10.80;3.40;;;;;;;;;;4876878;29;20061;-68
2021/12/10 10:53:19;;;;;;;11.30;3.28;;;;;;;;;;4795806;29;20058;-72
2021/12/10 10:55:52;;;;;;;9.82;3.55;;;;;;;;;;4824252;29;20069;-74
2021/12/10 10:58:25;;;;;;;16.35;3.60;;;;;;;;;;4857949;29;20053;-68
2021/12/10 11:01:13;;;;;;;14.77;3.55;;;;;;;;;;4858957;29;20054;-67
2021/12/10 11:04:12;;;;;;;11.70;3.60;;;;;;;;;;4895359;29;20053;-67
2021/12/10 11:06:46;;;;;;;14.75;3.40;;;;;;;;;;4919187;29;20059;-69
2021/12/10 11:09:20;;;;;;;9.63;3.22;;;;;;;;;;4951881;29;20055;-68
2021/12/10 11:12:13;;;;;;;9.25;2.80;;;;;;;;;;4936476;29;20059;-68
2021/12/10 11:14:49;;;;;;;14.98;2.92;;;;;;;;;;4951704;29;20055;-67
2021/12/10 11:17:19;;;;;;;6.80;2.40;;;;;;;;;;4951991;29;20055;-67
2021/12/10 11:20:17;;;;;;;9.55;2.85;;;;;;;;;;4965464;28;20046;-66
2021/12/10 11:22:52;;;;;;;9.50;3.45;;;;;;;;;;4954150;28;20439;-65
2021/12/10 11:25:34;;;;;;;7.40;2.78;;;;;;;;;;4951897;29;20063;-66
2021/12/10 11:28:25;;;;;;;14.70;2.70;;;;;;;;;;4951445;29;20103;-67
2021/12/10 11:31:04;;;;;;;8.52;2.78;;;;;;;;;;4936310;29;20055;-69
2021/12/10 11:33:41;;;;;;;9.80;2.80;;;;;;;;;;4951572;29;20440;-66
2021/12/10 11:36:18;;;;;;;9.65;3.30;;;;;;;;;;4925054;29;20063;-67
2021/12/10 11:38:51;;;;;;;12.27;2.40;;;;;;;;;;4948395;29;20055;-66
2021/12/10 11:41:26;;;;;;;7.20;2.70;;;;;;;;;;4942150;29;20059;-68
2021/12/10 11:49:35;;;;;;;14.18;2.67;;;;;;;;;;4904746;29;20498;-67
2021/12/10 11:52:17;;;;;;;8.00;2.33;;;;;;;;;;4944254;29;20059;-66
2021/12/10 11:54:55;;;;;;;6.25;2.40;;;;;;;;;;4932642;29;20059;-66
2021/12/10 11:57:39;;;;;;;9.90;2.60;;;;;;;;;;4950887;28;20058;-67
2021/12/10 12:00:23;;;;;;;9.40;2.53;;;;;;;;;;4932205;29;20051;-67
2021/12/10 12:02:58;;;;;;;5.28;2.40;;;;;;;;;;4916370;29;20044;-66
2021/12/10 12:05:33;;;;;;;8.32;2.38;;;;;;;;;;4924038;29;20051;-67
2021/12/10 12:08:08;;;;;;;11.65;2.45;;;;;;;;;;4931528;29;20059;-67
2021/12/10 12:10:42;;;;;;;5.43;2.28;;;;;;;;;;4932087;29;20070;-67
2021/12/10 12:15:48;;;;;;;9.38;2.42;;;;;;;;;;4932302;29;20060;-70
2021/12/10 12:18:24;;;;;;;9.05;2.25;;;;;;;;;;4909401;29;20053;-66
2021/12/10 12:20:57;;;;;;;7.80;2.28;;;;;;;;;;4894127;29;20061;-69
2021/12/10 12:26:24;;;;;;;7.70;2.38;;;;;;;;;;4894152;29;20064;-66
2021/12/10 12:29:16;;;;;;;13.52;2.75;;;;;;;;;;4912997;29;20056;-66
2021/12/10 12:31:53;;;;;;;9.75;2.65;;;;;;;;;;4914746;29;20112;-66
2021/12/10 12:34:27;;;;;;;8.60;2.35;;;;;;;;;;4916946;29;21029;-65
2021/12/10 12:37:06;;;;;;;6.95;2.55;;;;;;;;;;4916611;29;20056;-66
2021/12/10 12:40:02;;;;;;;9.48;2.47;;;;;;;;;;4952950;28;20051;-69
2021/12/10 12:42:45;;;;;;;8.80;2.72;;;;;;;;;;4993443;28;20058;-66
2021/12/10 12:45:23;;;;;;;7.55;2.33;;;;;;;;;;4999809;28;20046;-67
2021/12/10 12:48:15;;;;;;;8.20;2.30;;;;;;;;;;5013331;28;20068;-65
2021/12/10 12:50:48;;;;;;;5.70;2.40;;;;;;;;;;5013150;28;20058;-66
2021/12/10 12:53:24;;;;;;;7.57;2.33;;;;;;;;;;5012915;28;20061;-66
2021/12/10 12:56:05;;;;;;;8.85;2.67;;;;;;;;;;4980376;28;20057;-65
2021/12/10 12:59:01;;;;;;;11.65;2.33;;;;;;;;;;4999709;28;20054;-66
2021/12/10 13:01:37;;;;;;;9.15;2.70;;;;;;;;;;4973435;28;20058;-70
2021/12/10 13:04:15;;;;;;;6.45;2.88;;;;;;;;;;4954199;28;20059;-66
2021/12/10 13:07:13;;;;;;;7.90;2.40;;;;;;;;;;4923705;29;20059;-67
2021/12/10 13:09:52;;;;;;;;;;;;;;;;;;4916746;29;20063;-67
2021/12/10 13:12:39;;;;;;;8.90;2.47;;;;;;;;;;4916174;29;19927;-66
2021/12/10 13:15:33;;;;;;;4.80;1.95;;;;;;;;;;4916401;29;20067;-66
2021/12/10 13:18:07;;;;;;;9.68;2.15;;;;;;;;;;4916254;29;20079;-66
2021/12/10 13:20:46;;;;;;;7.07;2.33;;;;;;;;;;4934635;29;20052;-65
2021/12/10 13:23:21;;;;;;;9.23;3.35;;;;;;;;;;4935109;29;20471;-67
2021/12/10 13:25:56;;;;;;;6.30;1.90;;;;;;;;;;4919349;29;20064;-66
2021/12/10 13:28:27;;;;;;;7.38;2.60;;;;;;;;;;4935045;29;20458;-66
2021/12/10 13:31:08;;;;;;;5.93;1.98;;;;;;;;;;4924702;29;20515;-66
2021/12/10 13:33:43;;;;;;;4.25;1.98;;;;;;;;;;4924535;28;20474;-66
2021/12/10 13:36:18;;;;;;;5.55;1.50;;;;;;;;;;4977279;28;20065;-67
2021/12/10 13:38:52;;;;;;;7.45;1.67;;;;;;;;;;4938226;28;20078;-65
2021/12/10 13:41:29;;;;;;;8.45;1.92;;;;;;;;;;4950523;28;20526;-67
2021/12/10 13:44:20;;;;;;;5.72;1.25;;;;;;;;;;4958688;28;20054;-72
2021/12/10 13:46:54;;;;;;;10.07;2.45;;;;;;;;;;4986733;28;20421;-65
2021/12/10 13:49:51;;;;;;;8.13;1.77;;;;;;;;;;4943021;28;20159;-65
2021/12/10 13:52:41;;;;;;;5.80;1.85;;;;;;;;;;4900954;29;20063;-66
2021/12/10 13:55:35;;;;;;;9.63;2.00;;;;;;;;;;4874362;29;20057;-65
2021/12/10 13:58:34;;;;;;;5.35;2.05;;;;;;;;;;4845961;29;20453;-65
2021/12/10 14:01:12;;;;;;;6.93;1.30;;;;;;;;;;4876226;29;20065;-66
2021/12/10 14:04:10;;;;;;;7.10;1.30;;;;;;;;;;4858018;29;20061;-65
2021/12/10 14:06:54;;;;;;;3.80;1.27;;;;;;;;;;4874105;29;20057;-65
2021/12/10 14:09:31;;;;;;;6.50;1.08;;;;;;;;;;4837317;29;20049;-65
2021/12/10 14:12:13;;;;;;;6.15;1.17;;;;;;;;;;4837650;29;20058;-63
2021/12/10 14:14:50;;;;;;;7.47;1.25;;;;;;;;;;4855389;29;20064;-66
2021/12/10 14:17:32;;;;;;;9.07;2.30;;;;;;;;;;4855311;29;20472;-64
2021/12/10 14:20:32;;;;;;;11.88;2.97;;;;;;;;;;4852893;29;20068;-67
2021/12/10 14:23:26;;;;;;;35.70;19.55;;;;;;;;;;4857537;29;20176;-65
2021/12/10 14:26:21;;;;;;;4.38;1.20;;;;;;;;;;4840522;29;20088;-65
2021/12/10 14:29:15;;;;;;;5.03;1.55;;;;;;;;;;4859910;29;20049;-65
2021/12/10 14:32:26;;;;;;;4.45;1.55;;;;;;;;;;4877857;29;20430;-64
2021/12/10 14:35:23;;;;;;;8.55;1.73;;;;;;;;;;4890425;29;20433;-65
2021/12/10 14:38:02;;;;;;;4.70;1.25;;;;;;;;;;4912755;29;20064;-64
2021/12/10 14:40:58;;;;;;;4.80;1.23;;;;;;;;;;4882339;29;20056;-65
2021/12/10 14:44:09;;;;;;;5.32;1.30;;;;;;;;;;4893482;29;20049;-64
2021/12/10 14:46:40;;;;;;;3.95;1.02;;;;;;;;;;4892575;29;20429;-63
2021/12/10 14:49:35;;;;;;;4.22;1.20;;;;;;;;;;4893039;29;20060;-66
2021/12/10 14:52:40;;;;;;;7.45;1.23;;;;;;;;;;4885469;29;20057;-64
2021/12/10 14:55:38;;;;;;;6.57;1.05;;;;;;;;;;4875568;29;20064;-65
2021/12/10 14:58:29;;;;;;;4.43;1.02;;;;;;;;;;4874414;29;20053;-64
2021/12/10 15:01:20;;;;;;;3.95;1.20;;;;;;;;;;4887857;29;20551;-63
2021/12/10 15:04:29;;;;;;;3.42;1.10;;;;;;;;;;4911059;29;20056;-64
2021/12/10 15:07:46;;;;;;;4.07;0.98;;;;;;;;;;4914322;29;20052;-65
2021/12/10 15:10:50;;;;;;;2.80;0.90;;;;;;;;;;4927000;29;20056;-65
2021/12/10 15:13:43;;;;;;;4.93;1.10;;;;;;;;;;4913974;29;20052;-66
2021/12/10 15:16:38;;;;;;;5.07;1.08;;;;;;;;;;4913941;29;20063;-65
2021/12/10 15:19:09;;;;;;;5.38;1.05;;;;;;;;;;4928550;29;20051;-64
2021/12/10 15:21:43;;;;;;;3.85;1.08;;;;;;;;;;4960625;28;20458;-65
2021/12/10 15:24:21;;;;;;;3.40;1.33;;;;;;;;;;4956364;28;20062;-64
2021/12/10 15:27:05;;;;;;;6.25;1.20;;;;;;;;;;4971506;28;20552;-63
2021/12/10 15:29:48;;;;;;;3.70;1.10;;;;;;;;;;4955784;28;20051;-67
2021/12/10 15:32:21;;;;;;;2.15;0.82;;;;;;;;;;4971090;28;20051;-63
2021/12/10 15:35:25;;;;;;;5.22;1.00;;;;;;;;;;4986158;28;20510;-65
2021/12/10 15:38:09;;;;;;;10.15;1.52;;;;;;;;;;4990916;28;20065;-66
2021/12/10 15:40:48;;;;;;;9.52;1.52;;;;;;;;;;4998963;28;20068;-63
2021/12/10 15:43:37;;;;;;;5.82;1.15;;;;;;;;;;5050026;28;20065;-64
2021/12/10 15:46:14;;;;;;;5.20;1.45;;;;;;;;;;5049847;28;20064;-67
2021/12/10 15:48:49;;;;;;;5.95;1.23;;;;;;;;;;5049506;28;20052;-64
2021/12/10 15:51:31;;;;;;;4.22;1.40;;;;;;;;;;5049803;28;20044;-65
2021/12/10 15:54:07;;;;;;;5.65;1.08;;;;;;;;;;5049265;28;20041;-65